Impacts METAR Board
IDs:

KCVB - Castroville Muni, TX, US

Updated at: 0200 UTC 15 Aug 2020
Potential Impact None Slight Moderate High
Time 14/14Z 14/15Z 14/16Z 14/17Z 14/18Z 14/19Z 14/20Z 14/21Z 14/22Z 14/23Z 15/00Z 15/01Z 15/02Z
Temp82 87 91 94 98 100 102 103 104 103 103 100 96
Dewpt73 67 65 60 59 57 56 55 55 55 52 54 56
Altim30.00 30.00 30.00 29.99 29.97 29.95 29.92 29.89 29.87 29.85 29.85 29.86 29.87
VIS10 10 10 7 10 7 10 10 10 10 10 10 10
CIG-- -- -- -- -- -- -- -- -- -- -- -- --
CoverCLRCLRCLRCLRCLRCLRCLRCLRCLRCLRCLRCLRCLR
FltCatVFRVFRVFRVFRVFRVFRVFRVFRVFRVFRVFRVFRVFR
WX--------------------------
WDir170210170220160190210210200160170190160
WSpd4 7 6 9 8 8 5 7 4 10 6 6 8
WGst-- -- -- -- 14 -- -- -- -- -- -- -- --
Raw hourly METARs
KCVB 141355Z AUTO 17004KT 10SM CLR 28/23 A3000 RMK AO2 T02750230
KCVB 141455Z AUTO 21007KT 10SM CLR 30/20 A3000 RMK AO2 T03040195
KCVB 141555Z AUTO 17006KT 10SM CLR 33/18 A3000 RMK AO2 T03270184
KCVB 141655Z AUTO 22009KT 7SM CLR 35/16 A2999 RMK AO2 T03470155
KCVB 141755Z AUTO 16008G14KT 10SM CLR 37/15 A2997 RMK AO2 T03650149 10365 20245
KCVB 141855Z AUTO 19008KT 140V200 7SM CLR 38/14 A2995 RMK AO2 T03770141
KCVB 141955Z AUTO 21005KT 10SM CLR 39/13 A2992 RMK AO2 T03900134
KCVB 142055Z AUTO 21007KT 10SM CLR 40/13 A2989 RMK AO2 T03950128
KCVB 142155Z AUTO 20004KT 10SM CLR 40/13 A2987 RMK AO2 T04000127
KCVB 142255Z AUTO 16010KT 10SM CLR 40/13 A2985 RMK AO2 T03960130
KCVB 142355Z AUTO 17006KT 10SM CLR 40/11 A2985 RMK AO2 T03970111 10407 20363
KCVB 150055Z AUTO 19006KT 10SM CLR 38/12 A2986 RMK AO2 T03750124
KCVB 150155Z AUTO 16008KT 10SM CLR 36/14 A2987 RMK AO2 T03560135